Time;durP1;ratioP1;P1;durP2;ratioP2;P2;SDS_P1;SDS_P2;PMS_P1;PMS_P2;Temp;Humidity;BMP_temperature;BMP_pressure;BME280_temperature;BME280_humidity;BME280_pressure;Samples;Min_cycle;Max_cycle;Signal;HPM_P1;HPM_P2
2021/10/25 00:01:04;;;;;;;5.70;1.90;;;;;;;7.25;69.44;101372.36;115766;1192;59313;-77
2021/10/25 00:03:31;;;;;;;5.50;1.70;;;;;;;7.20;69.38;101376.29;115902;1192;72675;-77
2021/10/25 00:05:58;;;;;;;2.70;1.50;;;;;;;7.19;69.46;101373.06;115901;1192;60810;-77
2021/10/25 00:08:24;;;;;;;4.20;1.70;;;;;;;7.18;69.44;101374.86;115910;1192;61308;-77
2021/10/25 00:10:51;;;;;;;3.90;1.60;;;;;;;7.15;69.59;101368.14;115855;1192;75596;-77
2021/10/25 00:13:18;;;;;;;4.40;1.50;;;;;;;7.10;69.69;101366.47;115846;1191;70972;-77
2021/10/25 00:15:45;;;;;;;4.20;1.50;;;;;;;7.05;69.81;101365.48;115605;1192;72656;-77
2021/10/25 00:18:12;;;;;;;3.40;1.60;;;;;;;6.99;70.28;101361.11;115714;1192;61600;-78
2021/10/25 00:20:38;;;;;;;2.80;1.50;;;;;;;6.94;70.36;101358.54;115721;1192;60251;-77
2021/10/25 00:23:05;;;;;;;3.70;1.50;;;;;;;6.86;70.25;101357.30;115858;1192;59554;-77
2021/10/25 00:25:32;;;;;;;3.50;2.20;;;;;;;6.79;70.63;101355.80;115887;1192;72130;-77
2021/10/25 00:27:59;;;;;;;2.40;1.20;;;;;;;6.74;70.79;101358.37;115830;1192;72541;-77
2021/10/25 00:30:25;;;;;;;3.40;1.50;;;;;;;6.69;71.02;101354.52;115772;1192;60705;-77
2021/10/25 00:32:52;;;;;;;3.80;1.60;;;;;;;6.68;71.13;101353.46;115882;1192;60931;-77
2021/10/25 00:35:19;;;;;;;3.30;1.40;;;;;;;6.65;71.02;101350.33;115581;1192;76187;-78
2021/10/25 00:37:47;;;;;;;2.80;1.30;;;;;;;6.63;71.01;101347.04;115801;1192;72015;-77
2021/10/25 00:40:14;;;;;;;6.60;1.60;;;;;;;6.60;71.16;101344.98;115846;1192;73685;-77
2021/10/25 00:42:41;;;;;;;5.00;2.20;;;;;;;6.57;71.24;101350.92;115909;1192;59565;-77
2021/10/25 00:45:08;;;;;;;2.20;1.20;;;;;;;6.53;71.42;101360.30;115932;1192;59025;-77
2021/10/25 00:47:37;;;;;;;5.00;1.70;;;;;;;6.49;71.37;101352.74;115865;1191;74537;-77
2021/10/25 00:50:04;;;;;;;4.80;1.60;;;;;;;6.44;71.36;101356.73;115829;1192;71433;-78
2021/10/25 00:52:32;;;;;;;5.60;1.70;;;;;;;6.39;71.61;101352.09;115902;1192;72259;-77
2021/10/25 00:54:59;;;;;;;2.40;1.10;;;;;;;6.33;71.75;101356.05;115309;1193;61089;-77
2021/10/25 00:57:26;;;;;;;3.00;1.10;;;;;;;6.29;72.10;101352.94;115506;1192;60934;-77
2021/10/25 00:59:52;;;;;;;3.30;1.20;;;;;;;6.24;72.01;101348.44;115916;1192;59566;-77
2021/10/25 01:02:18;;;;;;;3.60;1.20;;;;;;;6.20;72.42;101346.29;115871;1192;59112;-77
2021/10/25 01:04:45;;;;;;;6.00;1.90;;;;;;;6.15;72.47;101346.03;115821;1184;72449;-77
2021/10/25 01:07:12;;;;;;;2.60;1.30;;;;;;;6.08;72.29;101349.27;115833;1191;61588;-77
2021/10/25 01:09:41;;;;;;;3.30;1.40;;;;;;;6.00;72.61;101347.80;115856;1192;60391;-77
2021/10/25 01:12:08;;;;;;;8.00;2.50;;;;;;;5.91;72.71;101348.14;115865;1192;75664;-77
2021/10/25 01:14:34;;;;;;;3.90;1.80;;;;;;;5.84;72.96;101353.54;115667;1184;71993;-77
2021/10/25 01:17:01;;;;;;;3.80;1.50;;;;;;;5.74;73.36;101350.30;115786;1192;72522;-77
2021/10/25 01:19:28;;;;;;;2.00;1.30;;;;;;;5.62;73.57;101347.39;115852;1192;59596;-77
2021/10/25 01:21:54;;;;;;;3.60;1.90;;;;;;;5.49;73.79;101343.71;115893;1191;61193;-77
2021/10/25 01:24:21;;;;;;;5.10;2.20;;;;;;;5.38;74.04;101345.36;115872;1191;59448;-77
2021/10/25 01:26:48;;;;;;;5.60;1.90;;;;;;;5.25;74.32;101348.30;115590;1193;71214;-77
2021/10/25 01:29:19;;;;;;;8.10;2.40;;;;;;;5.14;74.68;101348.84;115811;1191;58975;-77
2021/10/25 01:31:46;;;;;;;6.00;2.10;;;;;;;5.03;75.21;101343.80;115732;1192;61459;-77
2021/10/25 01:34:14;;;;;;;5.80;1.80;;;;;;;4.94;75.81;101340.15;115659;1191;61327;-77
2021/10/25 01:36:40;;;;;;;4.70;1.80;;;;;;;4.85;75.89;101341.33;115336;1192;74668;-77
2021/10/25 01:39:08;;;;;;;5.90;1.70;;;;;;;4.79;76.26;101341.84;115845;1191;70876;-77
2021/10/25 01:41:35;;;;;;;5.80;2.20;;;;;;;4.73;76.55;101340.92;115461;1193;73024;-77
2021/10/25 01:44:07;;;;;;;6.40;1.90;;;;;;;4.67;76.76;101340.83;115842;1191;62908;-78
2021/10/25 01:46:34;;;;;;;6.00;2.00;;;;;;;4.62;76.90;101339.27;115836;1191;59876;-77
2021/10/25 01:49:03;;;;;;;3.20;1.60;;;;;;;4.59;77.00;101335.20;115848;1192;74561;-77
2021/10/25 01:51:29;;;;;;;2.80;1.70;;;;;;;4.55;77.39;101332.12;115538;1192;70970;-77
2021/10/25 01:53:56;;;;;;;3.10;1.60;;;;;;;4.52;77.46;101332.01;115165;1193;72598;-78
2021/10/25 01:56:23;;;;;;;2.90;1.30;;;;;;;4.48;77.70;101332.47;115636;1191;59328;-77
2021/10/25 01:58:50;;;;;;;4.50;1.20;;;;;;;4.46;77.89;101332.13;115814;1192;59911;-77
2021/10/25 02:01:17;;;;;;;3.20;1.60;;;;;;;4.44;77.92;101330.89;115896;1192;74006;-77
2021/10/25 02:03:44;;;;;;;5.70;1.70;;;;;;;4.41;78.02;101327.77;115856;1192;71482;-77
2021/10/25 02:06:10;;;;;;;4.20;1.50;;;;;;;4.39;78.07;101324.30;115865;1192;58818;-77
2021/10/25 02:08:37;;;;;;;5.80;1.70;;;;;;;4.36;78.16;101323.46;115797;1191;59077;-77
2021/10/25 02:11:03;;;;;;;2.60;1.60;;;;;;;4.33;78.39;101320.16;115772;1191;59185;-77
2021/10/25 02:13:30;;;;;;;4.00;2.40;;;;;;;4.31;78.18;101320.71;115524;1191;74917;-78
2021/10/25 02:15:57;;;;;;;6.90;2.60;;;;;;;4.27;78.52;101318.36;115620;1192;70998;-77
2021/10/25 02:18:23;;;;;;;7.30;2.90;;;;;;;4.23;78.24;101320.26;115841;1191;72339;-77
2021/10/25 02:20:50;;;;;;;5.60;2.10;;;;;;;4.20;78.31;101325.42;115818;1191;58979;-77
2021/10/25 02:23:17;;;;;;;5.00;2.10;;;;;;;4.16;78.73;101323.61;115845;1191;61349;-77
2021/10/25 02:25:45;;;;;;;5.20;2.40;;;;;;;4.11;78.53;101327.00;115850;1191;73636;-77
2021/10/25 02:28:12;;;;;;;4.60;2.10;;;;;;;4.04;78.70;101321.05;115787;1191;70821;-77
2021/10/25 02:30:39;;;;;;;3.00;1.70;;;;;;;3.95;78.71;101314.69;115856;1191;72742;-77
2021/10/25 02:33:06;;;;;;;6.50;2.00;;;;;;;3.87;78.82;101311.45;115529;1184;60477;-77
2021/10/25 02:35:33;;;;;;;3.90;1.80;;;;;;;3.79;79.29;101310.13;115704;1191;60901;-77
2021/10/25 02:37:59;;;;;;;4.10;1.50;;;;;;;3.71;79.85;101313.02;115875;1191;74722;-77
2021/10/25 02:40:28;;;;;;;4.60;1.90;;;;;;;3.65;80.67;101306.59;115869;1191;71093;-77
2021/10/25 02:42:55;;;;;;;3.80;1.40;;;;;;;3.64;81.06;101307.58;115850;1191;73371;-77
2021/10/25 02:45:23;;;;;;;3.90;1.80;;;;;;;3.63;81.54;101305.54;115672;1192;61866;-77
2021/10/25 02:47:50;;;;;;;3.40;1.60;;;;;;;3.64;81.29;101309.88;115551;1192;61038;-77
2021/10/25 02:50:17;;;;;;;4.10;2.00;;;;;;;3.64;81.70;101310.72;115846;1191;75714;-77
2021/10/25 02:52:44;;;;;;;3.40;2.00;;;;;;;3.65;81.91;101306.07;115212;1192;72102;-78
2021/10/25 02:55:11;;;;;;;4.40;2.40;;;;;;;3.66;81.65;101304.63;115820;1191;72524;-78
2021/10/25 02:57:38;;;;;;;4.00;1.50;;;;;;;3.67;81.80;101305.61;115878;1192;61629;-78
2021/10/25 03:00:11;;;;;;;4.20;2.00;;;;;;;3.66;81.86;101308.80;115835;1191;60617;-77
2021/10/25 03:02:38;;;;;;;4.30;1.80;;;;;;;3.64;81.94;101307.25;115866;1192;75682;-77
2021/10/25 03:05:06;;;;;;;2.30;1.30;;;;;;;3.61;82.05;101303.75;115792;1192;70736;-78
2021/10/25 03:07:33;;;;;;;4.80;1.70;;;;;;;3.59;82.09;101303.73;115839;1192;72881;-78
2021/10/25 03:10:00;;;;;;;3.50;1.60;;;;;;;3.56;82.05;101304.83;115621;1192;60499;-78
2021/10/25 03:12:26;;;;;;;7.50;1.70;;;;;;;3.53;82.45;101304.23;115654;1192;59185;-77
2021/10/25 03:14:54;;;;;;;3.60;1.40;;;;;;;3.50;82.66;101300.79;115856;1192;75831;-77
2021/10/25 03:17:20;;;;;;;6.20;1.70;;;;;;;3.46;82.87;101298.81;115849;1192;70957;-77
2021/10/25 03:19:48;;;;;;;3.00;1.60;;;;;;;3.42;83.08;101297.98;115835;1192;73552;-77
2021/10/25 03:22:15;;;;;;;7.30;2.10;;;;;;;3.41;83.42;101301.77;115567;1192;60855;-77
2021/10/25 03:24:43;;;;;;;5.00;1.80;;;;;;;3.39;83.23;101302.27;115797;1192;59995;-77
2021/10/25 03:27:10;;;;;;;3.70;2.10;;;;;;;3.37;83.68;101295.73;115840;1192;75827;-78
2021/10/25 03:29:36;;;;;;;7.80;2.20;;;;;;;3.37;84.20;101287.41;115505;1192;71627;-77
2021/10/25 03:32:03;;;;;;;4.20;2.00;;;;;;;3.36;84.08;101286.20;115667;1192;73440;-77
2021/10/25 03:34:30;;;;;;;3.40;2.00;;;;;;;3.36;84.15;101283.23;115880;1192;61707;-77
2021/10/25 03:36:57;;;;;;;3.10;1.80;;;;;;;3.36;84.18;101286.77;115890;1192;61306;-77
2021/10/25 03:39:26;;;;;;;4.00;2.30;;;;;;;3.35;84.37;101280.89;115917;1192;75628;-78
2021/10/25 03:41:54;;;;;;;5.20;1.80;;;;;;;3.33;84.61;101277.55;115681;1192;72164;-78
2021/10/25 03:44:27;;;;;;;4.20;1.40;;;;;;;3.31;84.52;101279.80;115868;1192;72581;-78
2021/10/25 03:47:21;;;;;;;3.40;1.50;;;;;;;3.29;84.71;101276.45;115606;1192;59553;-77
2021/10/25 03:49:55;;;;;;;5.50;2.30;;;;;;;3.25;85.12;101278.09;115944;1191;60477;-78
2021/10/25 04:02:54;;;;;;;4.60;2.30;;;;;;;3.26;85.19;101284.83;115628;1192;61124;-78
2021/10/25 04:25:11;;;;;;;5.10;2.10;;;;;;;3.31;85.38;101287.67;115917;1192;60804;-78
2021/10/25 04:27:45;;;;;;;5.40;2.40;;;;;;;3.36;86.09;101281.20;115895;1184;62254;-78
2021/10/25 04:30:12;;;;;;;2.50;1.60;;;;;;;3.38;86.43;101277.33;115919;1191;60294;-78
2021/10/25 04:32:39;;;;;;;4.70;1.80;;;;;;;3.40;85.95;101276.69;115918;1191;74599;-78
2021/10/25 04:35:07;;;;;;;4.50;2.10;;;;;;;3.40;86.12;101280.16;115937;1192;70970;-77
2021/10/25 04:37:34;;;;;;;5.10;2.60;;;;;;;3.39;85.82;101277.83;115890;1192;73595;-77
2021/10/25 04:40:05;;;;;;;5.50;1.70;;;;;;;3.35;85.57;101272.52;115599;1192;60766;-78
2021/10/25 04:42:33;;;;;;;3.70;1.60;;;;;;;3.31;85.58;101271.23;115705;1192;59221;-78
2021/10/25 04:45:00;;;;;;;4.40;2.10;;;;;;;3.27;85.99;101268.87;115910;1191;74368;-77
2021/10/25 04:47:28;;;;;;;5.50;1.60;;;;;;;3.23;86.33;101266.70;115935;1192;71032;-77
2021/10/25 04:49:55;;;;;;;5.80;2.20;;;;;;;3.21;85.82;101271.41;115886;1192;72348;-77
2021/10/25 04:52:22;;;;;;;3.90;2.00;;;;;;;3.17;86.23;101269.40;115896;1191;58983;-77
2021/10/25 04:54:48;;;;;;;3.60;2.00;;;;;;;3.16;86.15;101264.30;115907;1191;59899;-77
2021/10/25 04:57:16;;;;;;;6.60;1.90;;;;;;;3.12;86.22;101260.89;115774;1192;74276;-77
2021/10/25 04:59:42;;;;;;;6.70;2.00;;;;;;;3.11;86.73;101262.05;115499;1191;71005;-77
2021/10/25 05:02:09;;;;;;;5.10;2.30;;;;;;;3.11;86.85;101260.29;115819;1192;73598;-78
2021/10/25 05:04:35;;;;;;;11.10;2.40;;;;;;;3.10;86.84;101260.55;115892;1192;60998;-78
2021/10/25 05:07:02;;;;;;;3.00;1.90;;;;;;;3.09;86.88;101262.52;115890;1191;59070;-76
2021/10/25 05:09:29;;;;;;;3.80;1.90;;;;;;;3.09;86.90;101258.71;115897;1192;75448;-76
2021/10/25 05:11:57;;;;;;;5.80;2.50;;;;;;;3.07;86.73;101259.13;115898;1191;59324;-77
2021/10/25 05:14:23;;;;;;;4.50;2.30;;;;;;;3.06;86.89;101253.49;115881;1192;72409;-77
2021/10/25 05:16:50;;;;;;;6.10;2.30;;;;;;;3.04;87.12;101254.34;115854;1191;60531;-77
2021/10/25 05:19:16;;;;;;;3.80;2.00;;;;;;;3.02;87.08;101254.10;115522;1192;59090;-76
2021/10/25 05:21:43;;;;;;;4.40;2.00;;;;;;;3.00;87.57;101251.60;115776;1191;74738;-77
2021/10/25 05:24:10;;;;;;;9.20;1.80;;;;;;;2.99;87.31;101249.82;115911;1192;70026;-77
2021/10/25 05:26:36;;;;;;;4.60;2.10;;;;;;;2.95;87.31;101244.89;115901;1192;72091;-77
2021/10/25 05:29:03;;;;;;;5.80;2.60;;;;;;;2.90;87.31;101241.88;115875;1192;62400;-77
2021/10/25 05:31:29;;;;;;;5.90;2.70;;;;;;;2.87;87.44;101244.52;115862;1192;59059;-77
2021/10/25 05:33:57;;;;;;;7.10;2.60;;;;;;;2.84;87.51;101240.70;115913;1191;73676;-77
2021/10/25 05:36:24;;;;;;;3.80;2.50;;;;;;;2.81;87.73;101235.85;115340;1191;72378;-78
2021/10/25 05:38:51;;;;;;;4.50;2.90;;;;;;;2.79;87.71;101238.48;115416;1191;73301;-78
2021/10/25 05:41:18;;;;;;;4.70;2.70;;;;;;;2.77;88.08;101231.45;115885;1192;61805;-78
2021/10/25 05:43:45;;;;;;;6.30;2.90;;;;;;;2.76;88.03;101238.38;115862;1192;61422;-78
2021/10/25 05:46:11;;;;;;;3.90;2.30;;;;;;;2.74;87.95;101239.92;115849;1184;74442;-78
2021/10/25 05:48:40;;;;;;;7.40;2.60;;;;;;;2.73;88.80;101243.25;115867;1191;70714;-78
2021/10/25 05:51:07;;;;;;;6.40;2.70;;;;;;;2.75;88.54;101243.97;115917;1191;73852;-78
2021/10/25 05:53:34;;;;;;;6.90;2.80;;;;;;;2.77;88.66;101241.55;115755;1191;61166;-78
2021/10/25 05:56:01;;;;;;;6.50;2.50;;;;;;;2.81;89.14;101240.44;115533;1192;59910;-78
2021/10/25 05:58:29;;;;;;;5.40;2.80;;;;;;;2.84;88.76;101239.66;115745;1192;76009;-78
2021/10/25 06:00:58;;;;;;;6.20;2.50;;;;;;;2.89;89.13;101243.20;115974;1191;72740;-78
2021/10/25 06:03:30;;;;;;;9.00;3.00;;;;;;;2.96;89.66;101244.65;115844;1192;73654;-78
2021/10/25 06:05:56;;;;;;;6.90;3.00;;;;;;;3.03;89.44;101239.20;115889;1192;61700;-78
2021/10/25 06:08:23;;;;;;;4.90;2.50;;;;;;;3.09;89.22;101238.39;115931;1191;61097;-78
2021/10/25 06:10:50;;;;;;;6.70;2.90;;;;;;;3.16;89.36;101240.98;115884;1191;74582;-78
2021/10/25 06:13:34;;;;;;;4.80;2.30;;;;;;;3.23;89.43;101244.65;115743;1192;70972;-78
2021/10/25 06:16:19;;;;;;;8.40;3.20;;;;;;;3.30;89.06;101242.77;115530;1191;73069;-77
2021/10/25 06:18:45;;;;;;;6.80;3.00;;;;;;;3.37;88.86;101241.41;115868;1191;62941;-77
2021/10/25 06:21:12;;;;;;;6.80;2.70;;;;;;;3.43;88.72;101241.82;115864;1191;58898;-77
2021/10/25 06:23:39;;;;;;;6.20;2.60;;;;;;;3.48;88.53;101241.95;115865;1191;75983;-77
2021/10/25 06:26:07;;;;;;;6.20;2.90;;;;;;;3.53;88.59;101241.23;115890;1191;71007;-77
2021/10/25 06:28:33;;;;;;;7.60;3.20;;;;;;;3.59;88.55;101245.54;115783;1192;72247;-77
2021/10/25 06:31:05;;;;;;;5.60;2.30;;;;;;;3.65;88.31;101246.45;115820;1192;60371;-77
2021/10/25 06:33:44;;;;;;;4.90;2.90;;;;;;;3.70;88.26;101246.11;115888;1191;59987;-77
2021/10/25 06:36:11;;;;;;;4.60;2.00;;;;;;;3.75;88.33;101245.53;115842;1192;75596;-78
2021/10/25 06:39:15;;;;;;;3.60;2.00;;;;;;;3.79;88.05;101238.55;115370;1191;70949;-77
2021/10/25 06:41:31;;;;;;;6.10;2.00;;;;;;;3.86;87.88;101239.30;115775;1191;72783;-78
2021/10/25 06:43:59;;;;;;;4.70;2.50;;;;;;;3.91;87.72;101240.45;115784;1191;61098;-78
2021/10/25 06:46:26;;;;;;;4.60;2.20;;;;;;;3.97;87.61;101237.37;115892;1191;61196;-78
2021/10/25 06:48:52;;;;;;;12.00;2.70;;;;;;;4.03;87.67;101237.42;115882;1191;74758;-78
2021/10/25 06:51:19;;;;;;;5.70;3.20;;;;;;;4.11;87.60;101239.99;115916;1191;70844;-78
2021/10/25 06:53:45;;;;;;;5.50;2.90;;;;;;;4.19;87.50;101242.29;115852;1191;73581;-79
2021/10/25 06:56:12;;;;;;;4.30;1.90;;;;;;;4.28;87.35;101237.73;115456;1192;61068;-79
2021/10/25 06:58:39;;;;;;;5.80;2.60;;;;;;;4.35;87.22;101237.60;115475;1192;58997;-79
2021/10/25 07:01:05;;;;;;;4.90;2.70;;;;;;;4.44;87.09;101238.26;115893;1192;73683;-79
2021/10/25 07:03:32;;;;;;;4.00;2.30;;;;;;;4.55;86.88;101245.97;115890;1191;71013;-76
2021/10/25 07:06:02;;;;;;;4.00;2.10;;;;;;;4.65;86.58;101247.91;115823;1192;72771;-76
2021/10/25 07:08:31;;;;;;;5.20;2.70;;;;;;;4.75;86.36;101248.90;115960;1191;61163;-77
2021/10/25 07:10:58;;;;;;;3.20;2.10;;;;;;;4.84;86.12;101254.10;115979;1184;60920;-77
2021/10/25 07:13:25;;;;;;;5.70;2.70;;;;;;;4.94;85.91;101251.42;115914;1192;74583;-77
2021/10/25 07:16:07;;;;;;;6.20;2.90;;;;;;;5.03;85.68;101258.26;115850;1191;71208;-77
2021/10/25 07:18:39;;;;;;;4.50;2.80;;;;;;;5.15;85.72;101253.05;115832;1191;72955;-77
2021/10/25 08:04:50;;;;;;;;;;;;;;;6.03;82.90;101247.80;115896;1192;60271;-77
2021/10/25 08:07:36;;;;;;;6.70;3.10;;;;;;;6.15;82.95;101256.83;115836;1192;74623;-77
2021/10/25 08:10:11;;;;;;;3.90;1.90;;;;;;;6.29;82.85;101256.65;115861;1192;72312;-77
2021/10/25 08:12:47;;;;;;;5.10;2.80;;;;;;;6.41;82.31;101253.48;115904;1193;72637;-78
2021/10/25 08:15:36;;;;;;;4.90;2.90;;;;;;;6.52;82.01;101244.98;115920;1192;61135;-78
2021/10/25 08:18:06;;;;;;;4.80;2.50;;;;;;;6.63;81.32;101247.15;115794;1192;61335;-77
2021/10/25 08:20:33;;;;;;;9.70;2.60;;;;;;;6.72;80.73;101245.88;115297;1192;75749;-78
2021/10/25 08:22:59;;;;;;;4.90;2.70;;;;;;;6.82;80.85;101249.20;115903;1192;71067;-77
2021/10/25 08:25:31;;;;;;;5.70;2.60;;;;;;;6.99;80.70;101242.55;115875;1192;73601;-77
2021/10/25 08:27:58;;;;;;;6.90;2.70;;;;;;;7.21;80.35;101242.36;115951;1191;61855;-78
2021/10/25 08:30:25;;;;;;;5.70;2.70;;;;;;;7.43;79.41;101245.48;115915;1192;60226;-78
2021/10/25 08:33:04;;;;;;;4.70;2.90;;;;;;;7.62;77.99;101247.70;115918;1191;73724;-78
2021/10/25 08:35:53;;;;;;;8.30;2.90;;;;;;;7.82;77.01;101247.34;115903;1192;71849;-79
2021/10/25 08:41:05;;;;;;;7.40;3.20;;;;;;;8.06;75.91;101238.48;115691;1192;60929;-79
2021/10/25 08:43:34;;;;;;;8.70;3.00;;;;;;;8.20;75.84;101243.91;115887;1191;60077;-79
2021/10/25 08:46:05;;;;;;;4.30;2.60;;;;;;;8.34;75.28;101248.51;115867;1191;74647;-78
2021/10/25 08:48:33;;;;;;;5.80;2.60;;;;;;;8.52;75.68;101252.85;115871;1192;71002;-78
2021/10/25 08:51:01;;;;;;;8.90;3.30;;;;;;;8.74;75.08;101256.39;115905;1191;73604;-77
2021/10/25 08:53:28;;;;;;;6.80;3.10;;;;;;;8.90;74.23;101258.22;115814;1192;60039;-78
2021/10/25 08:55:54;;;;;;;5.70;3.00;;;;;;;9.00;73.05;101259.01;115961;1191;59670;-79
2021/10/25 08:58:21;;;;;;;4.70;2.90;;;;;;;9.10;73.03;101258.39;115530;1191;73955;-78
2021/10/25 09:00:51;;;;;;;6.40;3.70;;;;;;;9.19;72.71;101260.44;115760;1192;71899;-79
2021/10/25 09:03:21;;;;;;;6.90;2.90;;;;;;;9.30;72.33;101260.38;115946;1192;72279;-77
2021/10/25 09:06:02;;;;;;;6.10;3.40;;;;;;;9.40;71.91;101258.03;115869;1192;61945;-77
2021/10/25 09:08:29;;;;;;;5.70;3.10;;;;;;;9.46;70.81;101258.54;115779;1192;60535;-71
2021/10/25 09:10:57;;;;;;;5.20;2.40;;;;;;;9.50;70.95;101262.17;115793;1192;75802;-72
2021/10/25 09:13:26;;;;;;;6.00;3.00;;;;;;;9.60;71.35;101260.63;115873;1192;71221;-72
2021/10/25 09:15:58;;;;;;;7.60;3.50;;;;;;;9.75;71.45;101257.48;115822;1192;71544;-72
2021/10/25 09:18:29;;;;;;;5.00;2.10;;;;;;;9.90;70.97;101254.23;115777;1192;60486;-72
2021/10/25 09:21:05;;;;;;;7.80;3.40;;;;;;;10.04;69.93;101255.42;115479;1191;60409;-72
2021/10/25 09:23:42;;;;;;;5.80;3.30;;;;;;;10.20;69.26;101251.82;115869;1192;74843;-73
2021/10/25 09:26:16;;;;;;;4.70;3.20;;;;;;;10.33;68.30;101252.67;115750;1191;71837;-73
2021/10/25 09:28:49;;;;;;;8.30;3.40;;;;;;;10.37;67.54;101246.02;115900;1184;72680;-72
2021/10/25 09:31:23;;;;;;;7.00;4.20;;;;;;;10.43;67.13;101244.69;115908;1191;60659;-73
2021/10/25 09:33:55;;;;;;;4.10;2.80;;;;;;;10.52;67.61;101243.92;115915;1191;61547;-73
2021/10/25 09:36:31;;;;;;;6.50;3.00;;;;;;;10.62;67.32;101247.81;115885;1191;74588;-73
2021/10/25 09:39:10;;;;;;;5.70;3.10;;;;;;;10.72;66.75;101243.50;115926;1192;71012;-72
2021/10/25 09:50:05;;;;;;;5.40;3.20;;;;;;;11.21;65.72;101244.23;115844;1192;75652;-73
2021/10/25 09:52:34;;;;;;;6.90;2.80;;;;;;;11.29;65.52;101244.39;115847;1192;70827;-74
2021/10/25 09:55:07;;;;;;;7.30;3.20;;;;;;;11.29;65.02;101243.57;115860;1192;74330;-73
2021/10/25 09:58:40;;;;;;;6.30;3.20;;;;;;;11.32;64.93;101244.33;115875;1192;60306;-73
2021/10/25 10:00:29;;;;;;;;;;;;;;;11.30;64.74;101235.96;115713;1192;61308;-73
2021/10/25 10:02:55;;;;;;;5.60;2.60;;;;;;;11.24;64.58;101236.14;115571;1192;74183;-74
2021/10/25 10:05:26;;;;;;;5.20;2.80;;;;;;;11.24;65.03;101235.44;115847;1192;70893;-73
2021/10/25 10:07:53;;;;;;;6.20;3.40;;;;;;;11.29;65.31;101231.48;115881;1192;72559;-74
2021/10/25 10:10:21;;;;;;;4.90;2.80;;;;;;;11.35;65.30;101232.77;115899;1192;63945;-74
2021/10/25 10:12:51;;;;;;;4.60;3.00;;;;;;;11.41;65.50;101229.32;115915;1192;61002;-74
2021/10/25 10:15:20;;;;;;;5.80;3.00;;;;;;;11.47;65.24;101228.68;115857;1191;74528;-74
2021/10/25 10:18:00;;;;;;;6.00;3.00;;;;;;;11.55;65.68;101226.02;115895;1192;71998;-74
2021/10/25 10:20:30;;;;;;;8.10;3.30;;;;;;;11.63;64.95;101227.61;115854;1192;73763;-74
2021/10/25 10:23:00;;;;;;;6.10;2.70;;;;;;;11.68;65.32;101225.66;115606;1192;60553;-74
2021/10/25 10:25:38;;;;;;;5.60;2.80;;;;;;;11.74;64.96;101223.52;115869;1192;60165;-73
2021/10/25 10:28:11;;;;;;;6.40;3.00;;;;;;;11.82;64.92;101216.80;115858;1192;73972;-74
2021/10/25 10:30:48;;;;;;;6.30;3.10;;;;;;;11.93;64.75;101212.90;115897;1191;71922;-74
2021/10/25 10:33:28;;;;;;;6.60;2.50;;;;;;;11.98;64.50;101205.24;115828;1192;72594;-74
2021/10/25 10:35:55;;;;;;;6.50;2.70;;;;;;;12.08;64.53;101202.63;115756;1192;61481;-74
2021/10/25 10:38:31;;;;;;;6.70;2.60;;;;;;;12.20;64.46;101205.90;115856;1192;59345;-74
2021/10/25 10:40:58;;;;;;;4.80;3.20;;;;;;;12.29;63.57;101206.16;115891;1192;74566;-74
2021/10/25 10:43:26;;;;;;;4.80;2.50;;;;;;;12.34;62.95;101206.53;115894;1191;71038;-74
2021/10/25 10:46:02;;;;;;;7.70;3.30;;;;;;;12.35;62.74;101204.39;115633;1192;72575;-73
2021/10/25 10:48:32;;;;;;;5.10;2.40;;;;;;;12.43;62.92;101197.06;115675;1192;60084;-74
2021/10/25 10:51:02;;;;;;;5.40;2.60;;;;;;;12.44;62.48;101196.80;115873;1192;61322;-74
2021/10/25 10:53:33;;;;;;;5.60;2.40;;;;;;;12.41;62.69;101196.54;115907;1191;74646;-74
2021/10/25 10:56:07;;;;;;;5.30;2.50;;;;;;;12.43;63.06;101203.84;115913;1192;72734;-74
2021/10/25 10:58:48;;;;;;;7.80;2.80;;;;;;;12.43;62.55;101208.44;115924;1184;73029;-74
2021/10/25 11:01:15;;;;;;;4.50;2.70;;;;;;;12.44;62.70;101207.44;115839;1192;60042;-74
2021/10/25 11:03:42;;;;;;;5.10;2.80;;;;;;;12.56;63.01;101211.56;115824;1192;60172;-74
2021/10/25 11:06:16;;;;;;;5.10;2.10;;;;;;;12.76;62.70;101208.95;115150;1184;74512;-75
2021/10/25 11:08:50;;;;;;;5.90;2.50;;;;;;;12.94;62.80;101208.42;115506;1192;71096;-74
2021/10/25 11:11:21;;;;;;;3.90;2.30;;;;;;;13.02;61.60;101204.34;115884;1192;73223;-74
2021/10/25 11:13:55;;;;;;;3.30;2.40;;;;;;;13.01;61.75;101207.47;115859;1192;60340;-74
2021/10/25 11:19:05;;;;;;;4.40;2.80;;;;;;;12.97;61.98;101209.52;115877;1192;74580;-74
2021/10/25 11:21:37;;;;;;;4.90;2.40;;;;;;;12.94;62.40;101211.48;115867;1192;71301;-74
2021/10/25 11:24:08;;;;;;;5.80;2.80;;;;;;;12.96;62.15;101213.86;115746;1192;72532;-74
2021/10/25 11:26:40;;;;;;;5.20;2.70;;;;;;;12.96;61.94;101214.50;115451;1192;60609;-73
2021/10/25 11:29:15;;;;;;;5.60;2.80;;;;;;;13.03;62.32;101212.61;115905;1192;59975;-74
2021/10/25 11:31:48;;;;;;;4.40;2.30;;;;;;;13.18;61.87;101216.56;115918;1192;75347;-74
2021/10/25 11:34:36;;;;;;;5.80;2.50;;;;;;;13.29;61.52;101219.35;115910;1192;72062;-74
2021/10/25 11:37:16;;;;;;;4.90;2.10;;;;;;;13.42;61.04;101218.67;115839;1192;73315;-74
2021/10/25 11:40:06;;;;;;;7.10;2.60;;;;;;;13.69;60.57;101216.83;115877;1192;60306;-74
2021/10/25 11:42:39;;;;;;;3.50;2.40;;;;;;;14.02;60.43;101216.23;115881;1191;60418;-74
2021/10/25 11:45:10;;;;;;;6.20;2.90;;;;;;;14.17;58.94;101216.53;115469;1193;76623;-74
2021/10/25 11:47:40;;;;;;;6.00;2.80;;;;;;;14.11;58.17;101206.98;115600;1191;70962;-74
2021/10/25 11:50:10;;;;;;;5.20;2.80;;;;;;;14.08;58.24;101202.52;115829;1192;72612;-74
2021/10/25 11:52:42;;;;;;;6.40;2.80;;;;;;;14.10;58.04;101198.59;115884;1192;61391;-74
2021/10/25 11:55:11;;;;;;;6.70;2.60;;;;;;;14.10;58.05;101196.27;115916;1191;61514;-74
2021/10/25 11:57:46;;;;;;;5.00;2.90;;;;;;;14.19;58.45;101193.02;115920;1191;75476;-74
2021/10/25 12:00:13;;;;;;;5.40;2.40;;;;;;;14.61;57.50;101195.06;115910;1192;72193;-74
2021/10/25 12:02:39;;;;;;;4.50;2.40;;;;;;;15.05;56.00;101201.45;115910;1192;71571;-74
2021/10/25 12:05:08;;;;;;;4.90;2.60;;;;;;;15.16;54.65;101201.06;115633;1192;61021;-74
2021/10/25 12:07:47;;;;;;;7.00;2.50;;;;;;;15.26;54.69;101194.03;115913;1192;62089;-74
2021/10/25 12:10:15;;;;;;;7.50;2.70;;;;;;;15.74;54.17;101187.80;115867;1192;76510;-74
2021/10/25 12:12:44;;;;;;;5.60;2.40;;;;;;;16.46;52.71;101179.26;115796;1192;70807;-74
2021/10/25 12:15:14;;;;;;;6.10;2.50;;;;;;;17.14;50.02;101177.57;115909;1192;72858;-74
2021/10/25 12:17:40;;;;;;;6.00;2.80;;;;;;;17.75;48.95;101172.77;115933;1191;61656;-74
2021/10/25 12:20:12;;;;;;;6.50;2.30;;;;;;;18.01;48.22;101166.82;115931;1192;60303;-73
2021/10/25 12:22:43;;;;;;;4.00;2.00;;;;;;;18.19;47.40;101159.84;115953;1192;76432;-73
2021/10/25 12:25:10;;;;;;;4.40;2.10;;;;;;;18.96;45.74;101161.67;115665;1192;72073;-73
2021/10/25 12:27:39;;;;;;;7.20;2.20;;;;;;;19.57;43.33;101155.14;115628;1192;73732;-73
2021/10/25 12:30:14;;;;;;;6.30;2.10;;;;;;;19.83;41.85;101156.35;115906;1192;61276;-74
2021/10/25 12:32:59;;;;;;;5.30;2.00;;;;;;;20.48;41.00;101148.67;115801;1192;60256;-74
2021/10/25 12:35:45;;;;;;;;;;;;;;;21.34;39.69;101144.73;115969;1192;76710;-74
2021/10/25 12:38:21;;;;;;;4.00;1.70;;;;;;;22.04;37.57;101141.25;115829;1192;72264;-74
2021/10/25 12:40:54;;;;;;;4.00;2.20;;;;;;;23.01;37.32;101138.92;115891;1192;72455;-74
2021/10/25 12:43:22;;;;;;;3.50;1.40;;;;;;;23.54;34.87;101140.34;115921;1192;60166;-74
2021/10/25 12:46:04;;;;;;;5.30;1.70;;;;;;;23.97;33.60;101136.84;115722;1192;59762;-74
2021/10/25 12:48:45;;;;;;;3.70;1.70;;;;;;;24.47;33.24;101124.83;115878;1192;75763;-75
2021/10/25 12:51:11;;;;;;;3.20;1.60;;;;;;;24.99;32.39;101126.45;115898;1192;70466;-75
2021/10/25 12:53:46;;;;;;;5.30;1.90;;;;;;;25.50;31.66;101123.86;115918;1192;72971;-74
2021/10/25 12:56:22;;;;;;;3.90;2.00;;;;;;;25.48;30.69;101117.86;115935;1192;61303;-74
2021/10/25 12:59:02;;;;;;;3.60;1.80;;;;;;;25.41;31.34;101121.70;115948;1192;61331;-74
2021/10/25 13:01:29;;;;;;;4.60;1.90;;;;;;;25.29;30.81;101118.58;115917;1192;75369;-75
2021/10/25 13:03:58;;;;;;;4.50;2.00;;;;;;;25.29;30.97;101117.73;115878;1192;71009;-75